createdAt,value
2022-08-31T00:00:43.759Z,65.00
2022-08-31T00:04:50.400Z,65.20
2022-08-31T00:08:55.173Z,65.50
2022-08-31T00:12:58.088Z,65.70
2022-08-31T00:21:25.337Z,66.20
2022-08-31T00:25:28.691Z,66.30
2022-08-31T01:41:59.989Z,70.10
2022-08-31T01:46:05.082Z,69.10
2022-08-31T01:50:14.427Z,70.40
2022-08-31T02:25:17.016Z,71.50
2022-08-31T02:37:56.838Z,72.00
2022-08-31T03:46:11.770Z,72.80
2022-08-31T04:46:23.425Z,74.70
2022-08-31T04:55:18.995Z,74.80
2022-08-31T06:27:38.865Z,74.10
2022-08-31T06:31:46.630Z,74.20
2022-08-31T06:35:52.043Z,73.70
2022-08-31T06:40:12.744Z,73.40
2022-08-31T06:44:43.933Z,73.50
2022-08-31T06:49:00.741Z,72.60
2022-08-31T06:53:05.302Z,72.50
2022-08-31T06:57:43.454Z,71.80
2022-08-31T07:02:04.675Z,71.60
2022-08-31T07:06:14.618Z,70.80
2022-08-31T07:10:19.510Z,70.20
2022-08-31T07:14:25.600Z,70.10
2022-08-31T07:18:31.233Z,69.90
2022-08-31T07:22:34.203Z,69.40
2022-08-31T07:26:58.763Z,69.10
2022-08-31T07:31:16.163Z,68.80
2022-08-31T07:35:19.714Z,68.10
2022-08-31T07:39:53.693Z,68.00
2022-08-31T07:43:59.577Z,67.70
2022-08-31T07:48:03.842Z,67.60
2022-08-31T07:52:24.134Z,67.10
2022-08-31T07:56:43.232Z,66.50
2022-08-31T08:00:50.637Z,66.10
2022-08-31T08:04:54.014Z,65.20
2022-08-31T08:13:40.187Z,63.40
2022-08-31T10:57:25.849Z,41.10
2022-08-31T13:02:16.639Z,38.80
2022-08-31T13:06:31.485Z,38.80
2022-08-31T13:10:37.278Z,38.50
2022-08-31T13:14:43.071Z,38.20
2022-08-31T13:18:47.634Z,38.20
2022-08-31T13:23:03.286Z,38.80
2022-08-31T13:27:08.088Z,38.70
2022-08-31T13:31:11.182Z,38.40
2022-08-31T13:35:21.352Z,37.80
2022-08-31T13:39:36.617Z,38.30
2022-08-31T13:43:43.584Z,38.80
2022-08-31T13:47:57.445Z,38.50
2022-08-31T13:52:06.222Z,38.40
2022-08-31T13:56:43.455Z,39.30
2022-08-31T14:00:46.619Z,39.60
2022-08-31T14:05:02.084Z,40.30
2022-08-31T14:26:51.060Z,41.00
2022-08-31T14:30:56.044Z,41.80
2022-08-31T14:35:02.480Z,42.00
2022-08-31T14:43:25.666Z,42.50
2022-08-31T14:47:31.833Z,43.10
2022-08-31T14:51:35.649Z,43.30
2022-08-31T14:55:41.697Z,43.20
2022-08-31T14:59:46.770Z,43.50
2022-08-31T15:03:50.019Z,43.50
2022-08-31T15:07:54.558Z,44.20
2022-08-31T15:12:01.294Z,44.70
2022-08-31T15:16:04.315Z,45.40
2022-08-31T15:20:10.341Z,45.80
2022-08-31T15:24:14.618Z,45.50
2022-08-31T15:28:18.533Z,45.80
2022-08-31T15:32:22.553Z,46.00
2022-08-31T15:36:27.095Z,46.10
2022-08-31T15:40:38.722Z,46.10
2022-08-31T15:44:42.915Z,46.00
2022-08-31T15:48:45.834Z,46.10
2022-08-31T15:52:51.205Z,46.70
2022-08-31T15:56:54.776Z,46.40
2022-08-31T16:00:58.243Z,46.30
2022-08-31T16:05:03.157Z,47.10
2022-08-31T16:09:06.418Z,47.20
2022-08-31T16:13:10.039Z,46.90
2022-08-31T16:17:19.437Z,46.30
2022-08-31T16:21:22.453Z,46.20
2022-08-31T16:25:29.376Z,46.30
2022-08-31T16:29:33.933Z,46.50
2022-08-31T16:33:37.215Z,46.20
2022-08-31T16:37:41.883Z,46.40
2022-08-31T16:41:47.898Z,46.20
2022-08-31T16:45:50.976Z,46.30
2022-08-31T16:49:53.933Z,46.10
2022-08-31T16:53:59.302Z,46.20
2022-08-31T16:58:03.923Z,46.40
2022-08-31T17:02:08.221Z,46.30
2022-08-31T17:06:11.255Z,46.50
2022-08-31T17:10:15.984Z,47.00
2022-08-31T17:14:26.462Z,47.30
2022-08-31T17:18:30.489Z,47.70
2022-08-31T17:22:33.981Z,47.80
2022-08-31T17:26:37.563Z,48.30
2022-08-31T17:30:42.951Z,48.60
2022-08-31T17:34:52.754Z,48.90
2022-08-31T17:38:57.517Z,49.10
2022-08-31T17:43:05.569Z,49.20
2022-08-31T17:47:09.013Z,49.70
2022-08-31T17:51:26.428Z,49.50
2022-08-31T17:55:34.073Z,49.90
2022-08-31T17:59:40.132Z,49.40
2022-08-31T18:03:46.743Z,50.20
2022-08-31T18:07:50.907Z,49.70
2022-08-31T18:11:55.905Z,50.00
2022-08-31T18:15:59.011Z,50.60
2022-08-31T18:20:03.869Z,50.00
2022-08-31T18:24:07.364Z,50.60
2022-08-31T18:28:12.825Z,50.90
2022-08-31T18:32:18.411Z,51.10
2022-08-31T18:36:23.618Z,51.10
2022-08-31T18:40:45.203Z,51.20
2022-08-31T18:45:06.709Z,51.60
2022-08-31T18:49:12.622Z,51.50
2022-08-31T18:53:28.717Z,51.80
2022-08-31T18:57:33.462Z,52.10
2022-08-31T19:01:36.973Z,52.50
2022-08-31T19:05:41.101Z,52.80
2022-08-31T19:09:44.877Z,52.90
2022-08-31T19:13:51.291Z,53.20
2022-08-31T19:17:54.629Z,53.40
2022-08-31T19:21:58.424Z,53.70
2022-08-31T19:26:01.529Z,54.00
2022-08-31T19:30:08.760Z,54.20
2022-08-31T19:34:18.315Z,54.40
2022-08-31T19:38:22.669Z,54.70
2022-08-31T19:46:55.154Z,55.30
2022-08-31T19:50:58.027Z,55.70
2022-08-31T19:55:09.163Z,55.90
2022-08-31T19:59:18.479Z,56.30
2022-08-31T20:03:22.407Z,56.60
2022-08-31T20:07:27.363Z,56.70
2022-08-31T20:11:35.028Z,56.90
2022-08-31T20:15:44.581Z,57.20
2022-08-31T20:19:52.022Z,57.00
2022-08-31T20:23:59.560Z,57.40
2022-08-31T20:28:03.204Z,57.70
2022-08-31T20:32:08.209Z,57.70
2022-08-31T20:36:19.257Z,58.00
2022-08-31T20:40:22.308Z,58.20
2022-08-31T20:44:36.490Z,58.50
2022-08-31T20:48:58.587Z,58.10
2022-08-31T20:53:04.456Z,58.50
2022-08-31T20:57:09.584Z,58.40
2022-08-31T21:01:14.359Z,58.50
2022-08-31T21:09:44.900Z,59.10
2022-08-31T21:13:47.864Z,59.30
2022-08-31T21:17:50.922Z,59.00
2022-08-31T21:22:01.302Z,59.20
2022-08-31T21:26:05.354Z,59.40
2022-08-31T21:30:11.112Z,59.90
2022-08-31T21:34:17.055Z,60.00
2022-08-31T21:38:20.376Z,60.10
2022-08-31T21:42:23.174Z,60.00
2022-08-31T21:46:28.566Z,60.50
2022-08-31T21:50:31.466Z,60.70
2022-08-31T21:54:34.740Z,60.60
2022-08-31T21:58:37.926Z,60.50
2022-08-31T22:02:40.924Z,61.30
2022-08-31T22:06:49.682Z,61.20
2022-08-31T22:10:53.211Z,61.30
2022-08-31T22:14:56.135Z,61.30
2022-08-31T22:19:01.750Z,61.50
2022-08-31T22:23:09.127Z,61.80
2022-08-31T22:27:12.983Z,62.00
2022-08-31T22:31:16.951Z,62.00
2022-08-31T22:35:21.129Z,62.00
2022-08-31T22:39:29.020Z,62.50
2022-08-31T22:43:31.826Z,62.70
2022-08-31T22:47:49.207Z,62.90
2022-08-31T22:51:53.180Z,62.80
2022-08-31T22:55:57.748Z,62.80
2022-08-31T23:00:00.845Z,63.10
2022-08-31T23:04:07.097Z,63.10
2022-08-31T23:08:16.026Z,63.30
2022-08-31T23:12:18.923Z,63.40
2022-08-31T23:16:33.514Z,63.70
2022-08-31T23:20:37.822Z,64.30
2022-08-31T23:24:45.017Z,64.60
2022-08-31T23:28:47.792Z,64.60
2022-08-31T23:32:51.019Z,64.40
2022-08-31T23:36:55.904Z,64.80
2022-08-31T23:41:17.548Z,65.20
2022-08-31T23:45:37.392Z,64.50
2022-08-31T23:49:49.881Z,65.40
2022-08-31T23:53:55.926Z,65.70
2022-08-31T23:57:59.379Z,65.70
